AirNav   Everest Fuels
 
 556 users online  

1AL2 Tri-L Acres Airpark
Columbiana, Alabama, USA

GOING TO COLUMBIANA?


FAA INFORMATION EFFECTIVE 10 SEPTEMBER 2020

Location

FAA Identifier: 1AL2
Lat/Long: 33-14-49.7500N 086-35-52.5000W
33-14.829167N 086-35.875000W
33.2471528,-86.5979167
(estimated)
Elevation: 580 ft. / 176.8 m (surveyed)
Variation: 00W (1990)
From city: 4 miles N of COLUMBIANA, AL
Time zone: UTC -5 (UTC -6 during Standard Time)
Zip code: 35051

Airport Operations

Airport use: Private use. Permission required prior to landing
Activation date: 03/1993
Control tower: no
ARTCC: ATLANTA CENTER
FSS: ANNISTON FLIGHT SERVICE STATION
Attendance: UNATNDD
Wind indicator: yes
Segmented circle: yes

Airport Communications

WX ASOS at EET (10 nm SW): 134.325 (205-663-5881)
WX AWOS-3PT at SCD (15 nm E): 119.125 (256-249-2620)
WX AWOS-3PT at EKY (17 nm W): 118.825 (205-424-3127)

Nearby radio navigation aids

VOR radial/distance  VOR name  Freq  Var
VUZr147/29.5VULCAN VORTAC114.4002E
OKWr089/32.7BROOKWOOD VORTAC111.0000E

Airport Services

Runway Information

Runway 5/23

Dimensions: 3751 x 60 ft. / 1143 x 18 m
Surface: turf, in good condition
RUNWAY 5  RUNWAY 23
Traffic pattern: leftleft
Displaced threshold: 400 ft.400 ft.
Obstructions: 29 ft. trees, 1019 ft. from runway58 ft. trees, 504 ft. from runway

Airport Ownership and Management from official FAA records

Ownership: Privately-owned
Owner: TRI-L ACRES AIRPARK. LLC
C/O MICHAEL M. JARED, 245 BREAM COVE RD
COLUMBIANA, AL 35051
Phone (205) 790-6090
Manager: MICHAEL M JARED
245 BREAM COVE RD
COLUMBIANA, AL 35051
Phone (205) 790-6090

Airport Operational Statistics

Aircraft based on the field: 4
Single engine airplanes: 4
    

Additional Remarks

FOR CD CTC ATLANTA ARTCC AT 770-210-7692.

Instrument Procedures

There are no published instrument procedures at 1AL2.

Some nearby airports with instrument procedures:

KEET - Shelby County Airport (10 nm SW)
KSCD - Merkel Field Sylacauga Municipal Airport (15 nm E)
KEKY - Bessemer Airport (17 nm W)
KBHM - Birmingham-Shuttlesworth International Airport (21 nm N)
02A - Chilton County Airport (24 nm S)
 
Loc | Ops | Rwys | IFR | FBO | Links
Com | Nav | Svcs | Stats | Notes
Area around 1AL2 (Tri-L Acres Airpark)
 
Road maps at: MapQuest Bing Google
 
Aerial photo
No photo
 
Sectional chart

 
Airport distance calculator
Flying to Tri-L Acres Airpark? Find the distance to fly.

From to 1AL2

Sunrise and sunset
Times for 22-Sep-2020
 Local
(UTC-5)
 Zulu
(UTC)
Morning civil twilight06:1111:11
Sunrise06:3611:36
Sunset18:4123:41
Evening civil twilight19:0600:06

Current date and time
Zulu (UTC)  22-Sep-2020 10:54:00
Local (UTC-5)  22-Sep-2020 05:54:00
 
METAR
KEET 
10nm W 
220953Z AUTO 07004KT 10SM CLR 12/09 A3023 RMK AO2 SLP234 T01220094
KSCD 
15nm E 
221035Z AUTO 00000KT 10SM CLR 14/10 A3025 RMK AO2 T01410097
KEKY 
17nm W 
220956Z AUTO 10007KT 10SM 14/09 A3023 RMK AO2 SLP084 T01440089 PNO $
TAF
KEET 
10nm W 
220535Z 2206/2306 09006KT P6SM SCT250 FM221600 10010G18KT P6SM BKN180 FM230000 06005KT P6SM BKN100
NOTAMs
Click for the latest NOTAMs
NOTAMs are issued by the DoD/FAA and will open in a separate window not controlled by AirNav.

 

 
 

Would you like to see your business listed on this page?

 If your business provides an interesting product or service to pilots, flight crews, aircraft, or users of the Tri-L Acres Airpark, you should consider listing it here.  To start the listing process, click on the button below
 
Add a business
 

Other Pages about Tri-L Acres Airpark

Update a link
 
Copyright © AirNav, LLC. All rights reserved. Privacy Policy  Contact